الصفحة الرئيسية
METAR-TAF:

METAR-TAF

مطار :

قاعدة الملك سلمان الجوية

الرياض, السعودية

دائرة عرض: 24-43N, خط طول: 046-44E, ارتفاع: 635 متر

مراقبة الطقس الحالي

تاريخ ووقت الإصدار 4ساعات و 40 دقيقة قبل الساعة 19:00UTC
ريح 5 عقدة من الجنوب الشرقي
درجة الحرارة 37°درجة مئوية
الرطوبة 11%
ضغط 1009 hPa
الرؤية 10 كم أو أكثر
الغيوم لا تقل 1500 م ولا وجود لمزنة ركامية السحاب الأسود

METAR: OERY 031900Z 14005KT CAVOK 37/02 Q1009

زمن: 02:40 (23:40 UTC)

توقعات

تاريخ ووقت الإصدار 40 دقيقة قبل الساعة 23:00UTC
التوقعات صالحة من04 الساعة 00 UTC إلى 05 الساعة 06 UTC
ريح 8 عقدة من الغرب/الجنوب الغربي
الرؤية 10 كم أو أكثر
الغيوم لا تقل 1500 م ولا وجود لمزنة ركامية السحاب الأسود
أصبح
من 04 الساعة 06 UTC إلى 04 الساعة 08 UTC
ريح 3 عقدةمن اتجاهات متغيرة

TAF: OERY 032300Z 0400/0506 24008KT CAVOK BECMG 0406/0408 VRB03KT

أرصاد الطقس والتوقعات من أكثر من 4000 مطار (تقارير الطقس للمطار METAR والتنبؤ بالطقس بالمطارTAF).

المحطات المتاحة هي النقط الصفراء والحمراء على الخريطة.

حرك المؤشر فوق النقطة لمعرفة اسم المحطة.

ثم انقر لمعرفة أرصاد وتوقعات الطقس.

لتغيير الخارطة: اضغط على الأزرار الخضراء مع رمز الصليب الأسود للتكبير. على الزر الأخضر مع شرطة للتصغير، أو على الأسهم الخضراء للخرائط المجاورة.


METAR-TAF: